Time;durP1;ratioP1;P1;durP2;ratioP2;P2;SDS_P1;SDS_P2;PMS_P1;PMS_P2;Temp;Humidity;BMP_temperature;BMP_pressure;BME280_temperature;BME280_humidity;BME280_pressure;Samples;Min_cycle;Max_cycle;Signal;HPM_P1;HPM_P2
2022/03/31 00:00:56;;;;;;;0.20;0.20;;;;;;;23.22;8.73;99543.00;5034031;28;20018;-77
2022/03/31 00:03:22;;;;;;;0.30;0.30;;;;;;;23.21;8.79;99547.63;5033629;28;20494;-77
2022/03/31 00:05:50;;;;;;;0.20;0.20;;;;;;;23.20;8.58;99553.38;5033676;28;20025;-77
2022/03/31 00:08:17;;;;;;;0.30;0.30;;;;;;;23.19;8.61;99551.75;5033422;28;20384;-78
2022/03/31 00:10:44;;;;;;;0.20;0.20;;;;;;;23.19;8.66;99559.94;5033679;28;20072;-77
2022/03/31 00:13:11;;;;;;;0.20;0.20;;;;;;;23.19;8.73;99552.56;5033544;28;20091;-77
2022/03/31 00:15:37;;;;;;;0.30;0.30;;;;;;;23.19;8.60;99554.47;5033528;28;20021;-78
2022/03/31 00:18:03;;;;;;;0.30;0.30;;;;;;;23.18;8.61;99561.03;5033556;28;20109;-77
2022/03/31 00:23:50;;;;;;;0.40;0.30;;;;;;;23.17;8.52;99559.41;5033530;28;20040;-77
2022/03/31 00:26:16;;;;;;;0.20;0.20;;;;;;;23.19;8.33;99562.66;5033789;28;20049;-77
2022/03/31 00:28:42;;;;;;;0.40;0.40;;;;;;;23.17;8.44;99560.22;5033655;28;20195;-77
2022/03/31 00:31:07;;;;;;;0.30;0.30;;;;;;;23.16;8.38;99558.63;5033221;28;20376;-78
2022/03/31 00:33:33;;;;;;;0.30;0.30;;;;;;;23.14;8.01;99560.00;5033664;28;20456;-78
2022/03/31 00:35:58;;;;;;;0.20;0.20;;;;;;;23.16;8.32;99557.78;5033488;28;20468;-77
2022/03/31 00:38:23;;;;;;;0.30;0.30;;;;;;;23.17;8.24;99570.31;5033510;28;20030;-77
2022/03/31 00:40:49;;;;;;;0.30;0.30;;;;;;;23.15;8.18;99567.09;5033196;28;20400;-77
2022/03/31 00:43:15;;;;;;;0.30;0.30;;;;;;;23.16;8.01;99576.88;5033127;28;20025;-77
2022/03/31 00:45:46;;;;;;;0.30;0.30;;;;;;;23.14;8.31;99573.63;5033579;28;20033;-76
2022/03/31 00:48:13;;;;;;;0.25;0.25;;;;;;;23.11;8.25;99572.31;5044027;28;20344;-76
2022/03/31 00:50:38;;;;;;;0.30;0.30;;;;;;;23.11;8.20;99568.75;5051991;28;20031;-78
2022/03/31 00:53:04;;;;;;;0.20;0.20;;;;;;;23.12;8.27;99578.56;5053488;28;20025;-77
2022/03/31 00:55:30;;;;;;;0.20;0.20;;;;;;;23.14;8.35;99582.59;5052999;28;20021;-78
2022/03/31 00:57:55;;;;;;;0.20;0.20;;;;;;;23.04;8.43;99575.34;5052229;28;20156;-77
2022/03/31 01:00:21;;;;;;;0.30;0.30;;;;;;;23.11;8.33;99583.22;5053219;28;20375;-77
2022/03/31 01:02:46;;;;;;;0.20;0.20;;;;;;;23.13;8.09;99596.50;5051973;28;20021;-78
2022/03/31 01:05:14;;;;;;;0.30;0.30;;;;;;;23.11;8.10;99590.56;5052937;28;20460;-77
2022/03/31 01:07:40;;;;;;;0.22;0.22;;;;;;;23.11;8.26;99593.28;5051790;28;20525;-77
2022/03/31 01:10:06;;;;;;;0.20;0.20;;;;;;;23.10;8.08;99584.28;5052783;28;20045;-78
2022/03/31 01:12:33;;;;;;;0.30;0.30;;;;;;;23.12;8.28;99586.75;5052788;28;20035;-78
2022/03/31 01:15:14;;;;;;;0.25;0.20;;;;;;;23.11;8.22;99587.81;5053145;28;20026;-78
2022/03/31 01:17:41;;;;;;;0.30;0.30;;;;;;;23.11;8.23;99587.81;5053184;28;20602;-77
2022/03/31 01:20:08;;;;;;;0.30;0.30;;;;;;;23.11;8.32;99594.09;5051901;28;20029;-77
2022/03/31 01:22:34;;;;;;;0.20;0.20;;;;;;;23.08;8.38;99589.22;5053007;28;20025;-78
2022/03/31 01:25:00;;;;;;;0.20;0.20;;;;;;;23.11;8.13;99593.28;5053149;28;20353;-77
2022/03/31 01:27:25;;;;;;;0.20;0.20;;;;;;;23.10;8.27;99586.22;5053134;28;20371;-77
2022/03/31 01:29:52;;;;;;;0.20;0.20;;;;;;;23.10;8.39;99594.41;5068346;28;20049;-77
2022/03/31 01:32:17;;;;;;;0.20;0.20;;;;;;;23.09;8.22;99587.31;5052724;28;20029;-77
2022/03/31 01:34:43;;;;;;;0.30;0.30;;;;;;;23.08;8.29;99588.41;5052644;28;20372;-77
2022/03/31 01:37:09;;;;;;;0.20;0.20;;;;;;;23.09;8.40;99590.03;5051713;28;20028;-77
2022/03/31 01:39:35;;;;;;;0.30;0.30;;;;;;;23.09;8.55;99595.47;5052890;28;20104;-78
2022/03/31 01:42:01;;;;;;;0.30;0.30;;;;;;;23.10;8.45;99602.56;5053851;28;20474;-78
2022/03/31 01:44:27;;;;;;;0.15;0.15;;;;;;;23.09;8.27;99600.94;5056510;28;20059;-78
2022/03/31 01:46:53;;;;;;;0.30;0.30;;;;;;;23.08;8.49;99604.75;5054938;28;20564;-78
2022/03/31 01:49:18;;;;;;;0.35;0.35;;;;;;;23.08;8.60;99602.03;5037697;28;20030;-78
2022/03/31 01:51:44;;;;;;;0.30;0.30;;;;;;;23.08;8.38;99602.03;5036453;28;20526;-78
2022/03/31 01:54:09;;;;;;;0.35;0.30;;;;;;;23.08;8.40;99600.13;5036362;28;20032;-77
2022/03/31 01:56:35;;;;;;;0.30;0.30;;;;;;;23.08;8.46;99602.84;5035082;28;20449;-77
2022/03/31 01:59:00;;;;;;;0.20;0.20;;;;;;;23.07;8.60;99595.78;5036546;28;20034;-77
2022/03/31 02:01:27;;;;;;;0.43;0.35;;;;;;;23.08;8.46;99611.03;5035995;28;20487;-77
2022/03/31 02:03:52;;;;;;;0.30;0.30;;;;;;;23.06;8.56;99611.31;5035898;28;20198;-77
2022/03/31 02:06:17;;;;;;;0.30;0.30;;;;;;;23.06;8.48;99603.16;5036221;28;20026;-78
2022/03/31 02:08:43;;;;;;;0.22;0.22;;;;;;;23.06;8.54;99605.88;5036702;28;20084;-77
2022/03/31 02:11:09;;;;;;;0.20;0.20;;;;;;;23.08;8.46;99612.94;5034509;28;20049;-77
2022/03/31 02:13:35;;;;;;;0.20;0.20;;;;;;;23.07;8.65;99603.94;5035689;28;20033;-78
2022/03/31 02:16:01;;;;;;;0.22;0.22;;;;;;;23.06;8.62;99607.78;5036021;28;20047;-77
2022/03/31 02:18:26;;;;;;;0.30;0.30;;;;;;;23.07;8.73;99609.41;5035687;28;20468;-78
2022/03/31 02:20:52;;;;;;;0.30;0.30;;;;;;;23.01;8.62;99614.06;5035755;28;20036;-78
2022/03/31 02:23:17;;;;;;;0.20;0.20;;;;;;;23.06;8.45;99622.22;5035524;28;20033;-78
2022/03/31 02:25:43;;;;;;;0.38;0.30;;;;;;;23.05;8.59;99622.47;5035511;28;20032;-77
2022/03/31 02:28:09;;;;;;;0.20;0.20;;;;;;;23.06;8.52;99619.50;5050940;28;20032;-77
2022/03/31 02:30:35;;;;;;;0.30;0.30;;;;;;;23.04;8.78;99626.28;5035888;28;20101;-77
2022/03/31 02:33:02;;;;;;;0.30;0.30;;;;;;;23.03;8.52;99630.94;5035948;28;20021;-77
2022/03/31 02:35:28;;;;;;;0.30;0.30;;;;;;;23.05;8.55;99627.94;5035746;28;20040;-77
2022/03/31 02:37:53;;;;;;;0.22;0.22;;;;;;;23.05;8.67;99623.31;5050656;28;20101;-77
2022/03/31 02:40:19;;;;;;;0.20;0.20;;;;;;;23.04;8.63;99627.13;5035243;28;20044;-77
2022/03/31 02:42:44;;;;;;;0.20;0.20;;;;;;;23.04;8.65;99621.69;5035092;28;20029;-77
2022/03/31 02:45:10;;;;;;;0.20;0.20;;;;;;;23.05;8.75;99627.94;5035521;28;20018;-77
2022/03/31 02:47:35;;;;;;;0.30;0.20;;;;;;;23.05;8.79;99623.31;5038676;28;20494;-77
2022/03/31 02:50:02;;;;;;;0.20;0.20;;;;;;;23.02;8.50;99623.84;5055124;28;20036;-76
2022/03/31 02:55:24;;;;;;;0.30;0.30;;;;;;;23.02;8.70;99623.84;5054608;28;20025;-77
2022/03/31 02:55:24;;;;;;;1.08;0.30;;;;;;;23.04;8.63;99629.00;5054931;28;20041;-77
2022/03/31 02:57:51;;;;;;;0.20;0.20;;;;;;;23.03;8.58;99624.69;5055228;28;20039;-77
2022/03/31 03:00:17;;;;;;;0.20;0.20;;;;;;;23.03;8.61;99624.69;5055247;28;20033;-78
2022/03/31 03:02:42;;;;;;;0.30;0.30;;;;;;;23.02;8.56;99623.03;5055140;28;20056;-77
2022/03/31 03:05:08;;;;;;;0.20;0.20;;;;;;;23.01;8.59;99632.34;5054740;28;20515;-77
2022/03/31 03:07:33;;;;;;;0.20;0.20;;;;;;;23.01;8.59;99635.88;5056324;28;20025;-79
2022/03/31 03:09:59;;;;;;;0.40;0.40;;;;;;;23.00;8.53;99636.16;5054740;28;20090;-77
2022/03/31 03:12:24;;;;;;;0.30;0.30;;;;;;;23.05;8.54;99634.22;5054875;28;20491;-77
2022/03/31 03:14:51;;;;;;;0.30;0.30;;;;;;;23.11;8.51;99636.88;5055016;28;20448;-78
2022/03/31 03:17:17;;;;;;;0.30;0.30;;;;;;;23.15;8.44;99637.94;5054495;28;20468;-79
2022/03/31 03:19:43;;;;;;;0.30;0.30;;;;;;;23.18;8.44;99640.06;5054699;28;20142;-78
2022/03/31 03:22:08;;;;;;;0.30;0.30;;;;;;;23.21;8.48;99636.78;5069823;28;20036;-78
2022/03/31 03:24:33;;;;;;;0.30;0.30;;;;;;;23.25;8.34;99640.56;5054371;28;20028;-78
2022/03/31 03:26:59;;;;;;;0.20;0.20;;;;;;;23.27;8.36;99643.81;5054594;28;20036;-78
2022/03/31 03:29:24;;;;;;;0.20;0.20;;;;;;;23.31;8.38;99646.75;5054523;28;20452;-79
2022/03/31 03:31:52;;;;;;;0.30;0.30;;;;;;;23.25;8.40;99632.38;5054548;28;20521;-77
2022/03/31 03:34:17;;;;;;;0.30;0.30;;;;;;;23.33;8.40;99642.63;5054345;28;20044;-77
2022/03/31 03:36:43;;;;;;;0.20;0.20;;;;;;;23.38;8.20;99652.66;5054423;28;20483;-78
2022/03/31 03:39:11;;;;;;;0.30;0.30;;;;;;;23.41;8.44;99657.53;5054397;28;20434;-78
2022/03/31 03:41:37;;;;;;;0.38;0.38;;;;;;;23.36;8.11;99644.78;5037802;28;20032;-77
2022/03/31 03:44:02;;;;;;;0.20;0.20;;;;;;;23.42;8.21;99649.06;5053906;28;20088;-79
2022/03/31 03:46:27;;;;;;;0.40;0.40;;;;;;;23.44;8.05;99652.31;5053899;28;20084;-78
2022/03/31 03:48:54;;;;;;;0.40;0.40;;;;;;;23.48;8.15;99659.91;5042008;28;20046;-78
2022/03/31 03:51:19;;;;;;;0.40;0.22;;;;;;;23.50;8.09;99657.69;5034114;28;20030;-78
2022/03/31 03:53:44;;;;;;;0.20;0.20;;;;;;;23.53;8.34;99668.03;5034192;28;20483;-78
2022/03/31 03:56:10;;;;;;;0.22;0.22;;;;;;;23.49;8.14;99654.19;5034457;28;20368;-76
2022/03/31 03:58:35;;;;;;;0.30;0.30;;;;;;;23.56;8.40;99670.16;5033828;28;20025;-79
2022/03/31 04:01:01;;;;;;;0.20;0.20;;;;;;;23.58;8.25;99667.97;5033322;28;20030;-78
2022/03/31 04:03:26;;;;;;;0.20;0.20;;;;;;;23.59;8.20;99658.66;5031830;28;20033;-77
2022/03/31 04:05:52;;;;;;;0.30;0.30;;;;;;;23.61;8.11;99675.53;5032669;28;20040;-76
2022/03/31 04:08:18;;;;;;;0.30;0.30;;;;;;;23.62;8.15;99674.47;5033638;28;20040;-77
2022/03/31 04:10:43;;;;;;;0.30;0.30;;;;;;;23.66;8.32;99678.22;5033148;28;20049;-77
2022/03/31 04:13:09;;;;;;;0.30;0.30;;;;;;;23.66;8.23;99680.94;5033477;28;20037;-77
2022/03/31 04:15:34;;;;;;;0.30;0.30;;;;;;;23.65;8.22;99679.34;5033654;28;20056;-77
2022/03/31 04:18:00;;;;;;;0.30;0.30;;;;;;;23.68;8.07;99677.94;5033199;28;20365;-78
2022/03/31 04:20:25;;;;;;;0.30;0.30;;;;;;;23.69;8.17;99679.56;5033338;28;20036;-77
2022/03/31 04:22:51;;;;;;;0.30;0.30;;;;;;;23.71;8.34;99688.25;5033042;28;20026;-76
2022/03/31 04:25:18;;;;;;;0.40;0.40;;;;;;;23.70;8.15;99684.72;5031828;28;20053;-76
2022/03/31 04:27:43;;;;;;;0.40;0.30;;;;;;;23.75;7.95;99692.00;5033330;28;20026;-76
2022/03/31 04:30:10;;;;;;;0.52;0.50;;;;;;;23.77;8.05;99690.63;5032874;28;20025;-77
2022/03/31 04:32:36;;;;;;;0.40;0.40;;;;;;;23.78;8.19;99695.00;5033100;28;20460;-76
2022/03/31 04:35:01;;;;;;;0.45;0.40;;;;;;;23.79;8.13;99699.31;5033224;28;20052;-78
2022/03/31 04:37:27;;;;;;;0.32;0.30;;;;;;;23.79;7.89;99696.59;5032835;28;20021;-76
2022/03/31 04:39:52;;;;;;;0.40;0.40;;;;;;;23.77;7.88;99692.56;5032852;28;20026;-77
2022/03/31 04:42:19;;;;;;;0.30;0.30;;;;;;;23.78;8.03;99697.72;5033333;28;20017;-77
2022/03/31 04:44:44;;;;;;;0.40;0.30;;;;;;;23.81;7.95;99699.88;5033027;28;20025;-77
2022/03/31 04:47:11;;;;;;;0.40;0.30;;;;;;;23.88;7.84;99709.63;5033242;28;20380;-77
2022/03/31 04:49:37;;;;;;;0.38;0.38;;;;;;;23.85;8.19;99716.47;5032666;28;20045;-77
2022/03/31 04:52:04;;;;;;;0.30;0.30;;;;;;;23.83;7.94;99710.50;5033083;28;20037;-76
2022/03/31 04:54:29;;;;;;;0.30;0.30;;;;;;;23.88;8.30;99715.88;5048148;28;20034;-77
2022/03/31 04:56:55;;;;;;;0.30;0.30;;;;;;;23.86;8.06;99712.66;5033081;28;20380;-76
2022/03/31 04:59:20;;;;;;;0.40;0.40;;;;;;;23.89;7.91;99714.81;5032591;28;20389;-77
2022/03/31 05:01:46;;;;;;;0.93;0.30;;;;;;;23.77;8.46;99715.19;5032740;28;20026;-76
2022/03/31 05:04:12;;;;;;;0.50;0.40;;;;;;;23.89;8.33;99716.72;5032829;28;20152;-76
2022/03/31 05:06:38;;;;;;;0.28;0.28;;;;;;;23.97;8.60;99718.78;5032890;28;20100;-78
2022/03/31 05:09:03;;;;;;;0.40;0.40;;;;;;;23.97;8.46;99719.63;5032993;28;20404;-77
2022/03/31 05:11:29;;;;;;;0.85;0.45;;;;;;;24.04;8.59;99727.41;5032837;28;20060;-78
2022/03/31 05:13:54;;;;;;;1.95;0.40;;;;;;;24.06;8.55;99727.94;5032497;28;20037;-76
2022/03/31 05:16:19;;;;;;;0.30;0.30;;;;;;;24.10;8.65;99734.44;5034780;28;20377;-76
2022/03/31 05:18:47;;;;;;;0.82;0.50;;;;;;;24.14;8.70;99734.66;5036809;28;20112;-76
2022/03/31 05:21:13;;;;;;;0.80;0.50;;;;;;;24.07;8.89;99729.56;5036311;28;20037;-76
2022/03/31 05:23:39;;;;;;;0.63;0.50;;;;;;;24.07;8.74;99718.63;5036571;28;20024;-75
2022/03/31 05:26:04;;;;;;;1.75;0.60;;;;;;;23.96;8.83;99723.44;5036753;28;20025;-76
2022/03/31 05:28:30;;;;;;;3.63;0.65;;;;;;;24.09;9.08;99727.34;5037409;28;20030;-75
2022/03/31 05:30:56;;;;;;;1.38;0.40;;;;;;;23.86;9.06;99737.22;5038218;28;20040;-74
2022/03/31 05:33:22;;;;;;;0.43;0.30;;;;;;;23.98;9.20;99743.03;5056385;28;20433;-76
2022/03/31 05:35:47;;;;;;;0.52;0.40;;;;;;;23.91;9.46;99730.88;5037423;28;20078;-75
2022/03/31 05:38:13;;;;;;;1.58;0.60;;;;;;;24.04;9.44;99746.50;5036572;28;20483;-75
2022/03/31 05:40:39;;;;;;;0.88;0.55;;;;;;;24.18;9.23;99747.44;5045976;28;20453;-76
2022/03/31 05:43:04;;;;;;;2.08;0.60;;;;;;;24.26;9.24;99748.69;5048131;28;20036;-74
2022/03/31 05:45:29;;;;;;;1.30;0.35;;;;;;;24.30;8.95;99754.38;5047932;28;20461;-76
2022/03/31 05:47:55;;;;;;;1.02;0.43;;;;;;;24.29;9.26;99759.03;5046968;28;20029;-76
2022/03/31 05:50:20;;;;;;;0.47;0.40;;;;;;;24.06;9.49;99755.25;5044349;28;20026;-73
2022/03/31 05:52:46;;;;;;;3.63;0.50;;;;;;;24.19;9.42;99754.50;5045235;28;20010;-80
2022/03/31 05:55:13;;;;;;;0.40;0.40;;;;;;;24.32;9.52;99757.63;5042042;28;20029;-76
2022/03/31 05:57:38;;;;;;;1.02;0.60;;;;;;;24.36;9.52;99759.47;5040767;28;20026;-75
2022/03/31 06:00:05;;;;;;;0.63;0.50;;;;;;;24.35;9.62;99751.56;5040819;28;20492;-77
2022/03/31 06:02:31;;;;;;;0.60;0.40;;;;;;;24.13;9.61;99766.63;5039148;28;20053;-77
2022/03/31 06:04:56;;;;;;;1.73;0.40;;;;;;;24.14;9.73;99765.50;5040839;28;20037;-77
2022/03/31 06:07:21;;;;;;;1.55;0.40;;;;;;;24.31;9.90;99765.00;5039724;28;20037;-75
2022/03/31 06:09:47;;;;;;;1.75;0.40;;;;;;;24.17;10.04;99770.38;5037415;28;20507;-76
2022/03/31 06:12:12;;;;;;;0.60;0.40;;;;;;;24.36;9.73;99773.13;5038016;28;20033;-76
2022/03/31 06:14:38;;;;;;;1.40;0.40;;;;;;;24.47;9.97;99765.59;5037860;28;20440;-75
2022/03/31 06:17:04;;;;;;;1.48;0.40;;;;;;;24.57;9.79;99772.06;5037175;28;20026;-77
2022/03/31 06:19:30;;;;;;;0.40;0.40;;;;;;;24.45;10.09;99762.34;5037134;28;20040;-76
2022/03/31 06:21:55;;;;;;;1.05;0.40;;;;;;;24.64;9.76;99772.47;5037566;28;20040;-76
2022/03/31 06:24:21;;;;;;;0.40;0.40;;;;;;;24.68;9.85;99776.22;5037078;28;20030;-75
2022/03/31 06:26:46;;;;;;;0.82;0.52;;;;;;;24.71;10.26;99776.44;5037440;28;20072;-76
2022/03/31 06:29:13;;;;;;;2.20;0.40;;;;;;;24.72;10.24;99782.75;5036357;28;20051;-77
2022/03/31 06:31:38;;;;;;;0.70;0.50;;;;;;;24.73;10.07;99792.56;5037116;28;20068;-76
2022/03/31 06:34:04;;;;;;;0.35;0.30;;;;;;;24.81;10.38;99791.88;5037024;28;20457;-76
2022/03/31 06:36:30;;;;;;;0.80;0.52;;;;;;;24.66;10.42;99794.84;5036336;28;20462;-76
2022/03/31 06:38:56;;;;;;;1.15;0.40;;;;;;;24.72;10.39;99799.94;5035510;28;20052;-76
2022/03/31 06:41:22;;;;;;;0.70;0.52;;;;;;;24.87;10.19;99796.19;5034695;28;20044;-75
2022/03/31 06:43:48;;;;;;;0.63;0.60;;;;;;;25.00;10.04;99799.25;5039156;28;20025;-75
2022/03/31 06:46:13;;;;;;;1.85;0.60;;;;;;;25.09;10.06;99805.66;5037686;28;20033;-76
2022/03/31 06:48:41;;;;;;;35.92;13.43;;;;;;;25.05;10.52;99801.91;5041477;28;20031;-77
2022/03/31 06:51:08;;;;;;;4.70;1.95;;;;;;;25.04;10.06;99812.03;5053872;28;20033;-75
2022/03/31 06:53:34;;;;;;;5.07;2.40;;;;;;;25.03;10.26;99809.59;5056964;28;20147;-76
2022/03/31 06:55:59;;;;;;;3.72;1.38;;;;;;;25.14;10.34;99816.50;5055423;28;20029;-77
2022/03/31 06:58:27;;;;;;;4.03;1.88;;;;;;;25.29;10.24;99816.28;5055166;28;20028;-76
2022/03/31 07:00:52;;;;;;;1.33;0.80;;;;;;;25.30;10.06;99826.13;5055250;28;20092;-76
2022/03/31 07:03:18;;;;;;;3.35;1.05;;;;;;;25.38;9.80;99821.06;5057619;28;20064;-76
2022/03/31 07:05:44;;;;;;;2.28;1.13;;;;;;;25.39;9.61;99819.94;5055289;28;20025;-78
2022/03/31 07:08:10;;;;;;;3.33;1.30;;;;;;;25.38;9.97;99829.28;5055018;28;20466;-77
2022/03/31 07:10:36;;;;;;;7.72;2.78;;;;;;;25.47;10.15;99825.56;5054164;28;20437;-76
2022/03/31 07:13:02;;;;;;;10.88;4.63;;;;;;;25.35;10.41;99817.00;5055710;28;20052;-76
2022/03/31 07:15:28;;;;;;;15.30;5.78;;;;;;;25.41;9.98;99828.69;5055421;28;20424;-75
2022/03/31 07:17:54;;;;;;;16.80;6.32;;;;;;;25.55;10.01;99817.75;5056310;28;20485;-76
2022/03/31 07:20:21;;;;;;;13.85;5.28;;;;;;;25.58;10.06;99826.19;5055721;28;20025;-74
2022/03/31 07:22:47;;;;;;;13.73;5.07;;;;;;;25.68;9.99;99831.47;5055793;28;20021;-76
2022/03/31 07:25:13;;;;;;;9.70;3.83;;;;;;;25.71;10.17;99830.03;5054366;28;20032;-76
2022/03/31 07:27:39;;;;;;;9.35;3.22;;;;;;;25.74;10.16;99839.56;5055479;28;20025;-75
2022/03/31 07:30:05;;;;;;;6.32;2.85;;;;;;;25.78;9.91;99833.16;5060203;28;20506;-75
2022/03/31 07:32:32;;;;;;;4.97;2.17;;;;;;;25.81;10.03;99839.97;5057525;28;20067;-75
2022/03/31 07:34:57;;;;;;;9.40;3.65;;;;;;;25.68;9.91;99830.63;5056761;28;20040;-77
2022/03/31 07:37:23;;;;;;;10.30;4.05;;;;;;;25.82;10.01;99841.63;5071419;28;20089;-76
2022/03/31 07:39:49;;;;;;;12.18;4.30;;;;;;;25.84;9.65;99845.66;5053824;28;20460;-75
2022/03/31 07:42:15;;;;;;;9.95;4.45;;;;;;;25.85;10.00;99838.25;5054948;28;20025;-74
2022/03/31 07:44:41;;;;;;;7.90;3.97;;;;;;;25.90;9.99;99849.09;5054601;28;20025;-76
2022/03/31 07:47:06;;;;;;;14.73;4.78;;;;;;;25.93;10.01;99843.03;5053303;28;20025;-75
2022/03/31 07:49:32;;;;;;;6.78;2.47;;;;;;;25.93;10.16;99845.75;5042128;28;20038;-75
2022/03/31 07:51:57;;;;;;;5.75;2.65;;;;;;;25.81;10.11;99851.72;5034722;28;20492;-75
2022/03/31 07:54:23;;;;;;;3.65;1.73;;;;;;;25.82;9.94;99847.09;5036977;28;20033;-74
2022/03/31 07:56:50;;;;;;;3.47;1.42;;;;;;;25.95;10.44;99859.97;5035469;28;20465;-75
2022/03/31 07:59:21;;;;;;;3.30;1.70;;;;;;;25.82;9.84;99847.91;5033031;28;20036;-76
2022/03/31 08:01:47;;;;;;;3.95;1.63;;;;;;;25.87;10.17;99860.66;5033088;28;20380;-76
2022/03/31 08:04:13;;;;;;;3.22;1.52;;;;;;;25.90;10.02;99857.31;5033922;28;20129;-76
2022/03/31 08:06:39;;;;;;;1.80;1.00;;;;;;;25.90;10.08;99859.25;5033600;28;20491;-75
2022/03/31 08:09:04;;;;;;;2.72;1.10;;;;;;;25.88;10.12;99854.06;5033473;28;20049;-75
2022/03/31 08:11:30;;;;;;;1.02;0.88;;;;;;;25.93;10.18;99859.44;5033986;28;20119;-76
2022/03/31 08:13:56;;;;;;;1.95;1.00;;;;;;;25.88;9.93;99854.06;5033563;28;20056;-76
2022/03/31 08:16:22;;;;;;;1.30;0.73;;;;;;;25.89;10.19;99863.09;5033414;28;20503;-75
2022/03/31 08:18:49;;;;;;;0.90;0.70;;;;;;;25.88;10.10;99862.28;5048132;28;20029;-77
2022/03/31 08:21:15;;;;;;;1.85;0.90;;;;;;;25.87;10.09;99866.13;5033338;28;20026;-75
2022/03/31 08:23:41;;;;;;;2.22;0.77;;;;;;;25.77;10.33;99861.66;5033228;28;20571;-75
2022/03/31 08:26:06;;;;;;;1.25;0.70;;;;;;;25.81;10.18;99872.81;5032986;28;20442;-75
2022/03/31 08:28:32;;;;;;;0.90;0.60;;;;;;;25.86;10.00;99880.94;5032804;28;20073;-76
2022/03/31 08:30:57;;;;;;;1.35;0.50;;;;;;;25.86;10.12;99875.47;5031364;28;20029;-75
2022/03/31 08:33:22;;;;;;;0.93;0.50;;;;;;;25.87;9.97;99877.06;5033235;28;20037;-76
2022/03/31 08:35:48;;;;;;;0.55;0.40;;;;;;;25.92;10.21;99873.44;5033015;28;20044;-76
2022/03/31 08:38:13;;;;;;;1.15;0.75;;;;;;;25.98;9.79;99883.22;5032983;28;20530;-76
2022/03/31 08:40:39;;;;;;;1.77;0.30;;;;;;;26.03;10.04;99883.13;5032809;28;20034;-76
2022/03/31 08:43:06;;;;;;;0.63;0.35;;;;;;;25.97;9.65;99865.97;5047843;28;20111;-75
2022/03/31 08:45:35;;;;;;;0.50;0.40;;;;;;;26.05;9.78;99883.63;5033497;28;20471;-75
2022/03/31 08:48:01;;;;;;;0.40;0.40;;;;;;;26.10;9.56;99889.00;5032926;28;20021;-75
2022/03/31 08:50:27;;;;;;;0.75;0.40;;;;;;;26.10;9.68;99890.94;5051392;28;20104;-76
2022/03/31 08:52:53;;;;;;;1.45;0.32;;;;;;;26.16;9.74;99892.44;5056771;28;20029;-76
2022/03/31 08:55:19;;;;;;;1.45;0.40;;;;;;;26.19;9.71;99894.59;5055462;28;20136;-75
2022/03/31 08:57:48;;;;;;;0.63;0.40;;;;;;;26.21;9.41;99901.38;5057580;28;20475;-75
2022/03/31 09:00:15;;;;;;;1.48;0.30;;;;;;;26.22;9.36;99893.97;5056238;28;20021;-76
2022/03/31 09:02:40;;;;;;;0.30;0.30;;;;;;;26.32;9.23;99910.22;5056597;28;20049;-75
2022/03/31 09:05:12;;;;;;;0.20;0.20;;;;;;;26.27;9.43;99901.25;5071479;28;20467;-76
2022/03/31 09:08:00;;;;;;;0.70;0.30;;;;;;;26.28;9.30;99908.38;5056286;28;20041;-76
2022/03/31 09:10:26;;;;;;;0.77;0.22;;;;;;;26.31;9.49;99911.31;5055899;28;20045;-75
2022/03/31 09:12:51;;;;;;;0.30;0.30;;;;;;;26.26;9.04;99910.63;5056698;28;20083;-76
2022/03/31 09:15:17;;;;;;;0.95;0.30;;;;;;;26.27;9.57;99914.97;5054738;28;20025;-76
2022/03/31 09:17:42;;;;;;;0.25;0.25;;;;;;;26.34;9.46;99918.13;5056141;28;20079;-76
2022/03/31 09:20:08;;;;;;;0.30;0.30;;;;;;;26.47;9.20;99921.97;5056225;28;20033;-74
2022/03/31 09:22:50;;;;;;;0.28;0.25;;;;;;;26.40;9.34;99923.16;5056920;28;20075;-76
2022/03/31 09:25:22;;;;;;;1.05;0.63;;;;;;;26.41;9.26;99927.53;5057030;28;20025;-74
2022/03/31 09:27:48;;;;;;;20.85;7.97;;;;;;;26.45;9.25;99930.47;5062603;22;20049;-73
2022/03/31 09:30:14;;;;;;;21.85;8.98;;;;;;;26.52;9.18;99935.56;5044958;28;20129;-70
2022/03/31 09:32:51;;;;;;;8.65;4.60;;;;;;;26.53;9.16;99937.19;5043534;28;20143;-72
2022/03/31 09:35:20;;;;;;;19.35;8.35;;;;;;;26.42;9.04;99931.09;5044757;28;20104;-73
2022/03/31 09:37:49;;;;;;;12.35;3.72;;;;;;;26.54;9.11;99936.06;5041968;28;20029;-72
2022/03/31 09:40:15;;;;;;;10.00;3.17;;;;;;;26.48;9.52;99934.56;5045112;28;20091;-73
2022/03/31 09:42:41;;;;;;;6.68;2.30;;;;;;;26.54;9.13;99925.09;5047469;28;20021;-73
2022/03/31 09:45:08;;;;;;;9.30;2.78;;;;;;;26.55;9.27;99940.44;5046679;28;20028;-74
2022/03/31 09:47:44;;;;;;;6.45;2.38;;;;;;;26.54;9.29;99933.31;5044948;28;20045;-72
2022/03/31 09:50:10;;;;;;;5.90;2.03;;;;;;;26.52;9.06;99936.38;5040144;28;20036;-72
2022/03/31 09:52:35;;;;;;;2.78;1.20;;;;;;;26.53;9.11;99942.69;5040230;28;20021;-74
2022/03/31 09:55:01;;;;;;;3.00;1.70;;;;;;;26.53;8.96;99942.69;5026922;28;20387;-71
2022/03/31 09:57:26;;;;;;;3.15;1.35;;;;;;;26.37;9.08;99920.22;5045517;28;20053;-73
2022/03/31 09:59:52;;;;;;;0.88;0.60;;;;;;;26.51;9.16;99940.25;5027928;28;20025;-73
2022/03/31 10:02:19;;;;;;;3.38;1.02;;;;;;;26.46;9.16;99942.25;5043978;28;20148;-73
2022/03/31 10:04:46;;;;;;;10.20;4.53;;;;;;;26.44;9.03;99945.31;5045604;28;20098;-74
2022/03/31 10:07:11;;;;;;;3.80;1.77;;;;;;;26.47;8.95;99946.63;5046208;28;20021;-72
2022/03/31 10:09:39;;;;;;;7.85;2.97;;;;;;;26.45;8.77;99952.41;5043939;28;20052;-73
2022/03/31 10:12:17;;;;;;;12.75;4.60;;;;;;;26.47;8.69;99952.09;5047363;28;20100;-73
2022/03/31 10:14:47;;;;;;;7.93;2.92;;;;;;;26.28;8.92;99928.34;5049857;28;20033;-73
2022/03/31 10:17:12;;;;;;;3.47;1.77;;;;;;;26.16;8.92;99922.56;5053508;28;20032;-80
2022/03/31 10:19:40;;;;;;;3.15;0.75;;;;;;;26.11;9.16;99919.94;5039065;28;20050;-77
2022/03/31 10:25:03;;;;;;;2.75;0.82;;;;;;;26.25;8.95;99959.13;5056284;28;20089;-78
2022/03/31 10:27:33;;;;;;;0.98;0.70;;;;;;;26.32;8.97;99964.16;5055556;28;20021;-78
2022/03/31 10:30:13;;;;;;;1.55;0.80;;;;;;;26.34;8.95;99962.75;5055995;28;20049;-79
2022/03/31 10:32:51;;;;;;;1.08;0.50;;;;;;;26.33;8.96;99966.59;5047512;22;20050;-75
2022/03/31 10:35:22;;;;;;;0.90;0.60;;;;;;;26.29;8.83;99967.53;5014765;28;20555;-75
2022/03/31 10:37:47;;;;;;;1.00;0.57;;;;;;;25.97;8.89;99952.75;5014924;28;20416;-75
2022/03/31 10:40:13;;;;;;;1.05;0.60;;;;;;;26.16;9.18;99966.38;5014801;28;20037;-75
2022/03/31 10:42:38;;;;;;;0.82;0.50;;;;;;;26.14;8.86;99969.41;5015028;28;20026;-77
2022/03/31 10:45:13;;;;;;;0.60;0.50;;;;;;;26.14;9.00;99965.88;5015246;28;20429;-76
2022/03/31 10:47:40;;;;;;;2.05;0.32;;;;;;;26.09;8.87;99958.56;5014844;28;20026;-77
2022/03/31 10:50:07;;;;;;;0.65;0.60;;;;;;;26.13;9.08;99961.50;5027120;28;20108;-76
2022/03/31 10:52:33;;;;;;;1.70;0.32;;;;;;;26.14;8.86;99963.16;5034636;28;20025;-77
2022/03/31 10:55:19;;;;;;;0.75;0.47;;;;;;;26.18;8.80;99969.63;5034900;28;20484;-77
2022/03/31 10:57:44;;;;;;;0.40;0.40;;;;;;;26.16;9.28;99972.66;5034214;28;20044;-76
2022/03/31 11:00:11;;;;;;;0.40;0.40;;;;;;;26.23;9.15;99977.75;5034562;28;20037;-77
2022/03/31 11:02:41;;;;;;;0.30;0.30;;;;;;;26.16;8.96;99961.72;5034528;28;20045;-76
2022/03/31 11:05:07;;;;;;;0.98;0.30;;;;;;;26.27;9.21;99986.16;5034139;28;20033;-77
2022/03/31 11:07:33;;;;;;;2.50;0.40;;;;;;;26.28;9.18;99983.13;5034444;28;20349;-76
2022/03/31 11:10:18;;;;;;;0.60;0.40;;;;;;;26.14;9.51;99979.56;5034782;28;20021;-76
2022/03/31 11:12:44;;;;;;;0.30;0.30;;;;;;;26.25;9.43;99986.50;5035448;28;20037;-76
2022/03/31 11:15:13;;;;;;;1.58;0.30;;;;;;;26.29;9.36;99987.50;5035168;28;20079;-78
2022/03/31 11:17:40;;;;;;;0.38;0.20;;;;;;;26.31;9.28;99985.28;5049381;28;20056;-75
2022/03/31 11:20:18;;;;;;;0.30;0.30;;;;;;;26.24;9.17;99990.34;5033856;28;20033;-77
2022/03/31 11:22:54;;;;;;;0.30;0.20;;;;;;;26.18;9.26;99983.31;5033879;28;20045;-75
2022/03/31 11:25:19;;;;;;;0.30;0.30;;;;;;;26.13;9.55;99977.94;5034228;28;20025;-77
2022/03/31 11:27:46;;;;;;;0.40;0.20;;;;;;;26.19;9.15;99988.50;5032655;28;20041;-76
2022/03/31 11:30:20;;;;;;;13.45;7.90;;;;;;;26.17;9.64;99979.78;5033796;28;20037;-77
2022/03/31 11:32:48;;;;;;;4.70;2.70;;;;;;;26.25;8.99;99981.03;5033633;28;20053;-75
2022/03/31 11:35:17;;;;;;;27.60;12.35;;;;;;;26.20;9.08;99987.41;5049007;28;20050;-77
2022/03/31 11:37:52;;;;;;;35.03;14.10;;;;;;;26.21;9.48;99991.75;5033920;28;20124;-77
2022/03/31 11:40:38;;;;;;;5.85;2.88;;;;;;;26.33;9.02;99999.47;4992252;28;20053;-76
2022/03/31 11:43:05;;;;;;;7.65;3.13;;;;;;;26.31;9.44;99993.50;4991831;28;20061;-76